Time;durP1;ratioP1;P1;durP2;ratioP2;P2;SDS_P1;SDS_P2;PMS_P1;PMS_P2;Temp;Humidity;BMP_temperature;BMP_pressure;BME280_temperature;BME280_humidity;BME280_pressure;Samples;Min_cycle;Max_cycle;Signal;HPM_P1;HPM_P2
2021/03/25 00:01:22;;;;;;;12.48;5.40;;;;;;;8.19;77.87;101164.47;4990730;28;20043;-67
2021/03/25 00:03:51;;;;;;;7.95;4.20;;;;;;;8.24;77.92;101164.59;4990409;28;20129;-68
2021/03/25 00:06:19;;;;;;;9.98;3.50;;;;;;;8.22;77.94;101138.25;4990537;28;20026;-67
2021/03/25 00:08:46;;;;;;;9.52;4.13;;;;;;;8.11;77.82;101133.50;4990380;28;20087;-67
2021/03/25 00:11:15;;;;;;;5.18;2.50;;;;;;;8.15;78.04;101123.13;4989046;28;20041;-66
2021/03/25 00:13:42;;;;;;;8.23;4.07;;;;;;;8.20;77.95;101129.44;4990206;28;20475;-68
2021/03/25 00:16:09;;;;;;;9.98;5.13;;;;;;;8.23;77.61;101120.75;4989814;28;20153;-67
2021/03/25 00:18:37;;;;;;;12.95;6.88;;;;;;;8.24;77.51;101109.38;4990579;28;20376;-67
2021/03/25 00:21:05;;;;;;;10.32;5.20;;;;;;;8.19;77.68;101117.16;4994209;28;20188;-66
2021/03/25 00:23:32;;;;;;;15.63;7.68;;;;;;;8.20;77.46;101120.66;4994868;28;20121;-66
2021/03/25 00:26:00;;;;;;;15.07;8.93;;;;;;;8.31;77.40;101114.03;4993988;28;20125;-66
2021/03/25 00:28:28;;;;;;;11.18;6.80;;;;;;;8.35;77.50;101118.50;4994170;28;20411;-66
2021/03/25 00:30:56;;;;;;;7.53;3.83;;;;;;;8.43;77.39;101113.50;4993991;28;20561;-67
2021/03/25 00:33:23;;;;;;;6.75;2.80;;;;;;;8.50;77.19;101104.94;4994141;28;20085;-66
2021/03/25 00:35:51;;;;;;;6.78;2.42;;;;;;;8.56;77.02;101113.91;4994161;28;20499;-67
2021/03/25 00:38:18;;;;;;;6.25;3.80;;;;;;;8.60;76.65;101102.59;4993889;28;20038;-66
2021/03/25 00:40:49;;;;;;;7.25;2.97;;;;;;;8.62;76.56;101105.28;4993961;28;20030;-67
2021/03/25 00:43:18;;;;;;;7.15;3.42;;;;;;;8.61;76.72;101107.03;4994262;28;20069;-66
2021/03/25 00:45:48;;;;;;;6.57;3.45;;;;;;;8.62;76.98;101089.50;4993455;28;20050;-67
2021/03/25 00:48:16;;;;;;;7.60;2.97;;;;;;;8.65;76.90;101103.66;4993531;28;20038;-66
2021/03/25 00:50:45;;;;;;;5.35;2.70;;;;;;;8.66;76.95;101094.03;4993351;28;20038;-67
2021/03/25 00:53:15;;;;;;;5.68;2.50;;;;;;;8.69;77.16;101097.63;4993936;28;20046;-66
2021/03/25 00:55:42;;;;;;;5.07;2.80;;;;;;;8.68;77.20;101087.94;4993781;28;20122;-67
2021/03/25 00:58:09;;;;;;;5.20;2.30;;;;;;;8.69;77.39;101100.25;4993801;28;20051;-67
2021/03/25 01:00:38;;;;;;;6.63;2.90;;;;;;;8.70;77.50;101090.63;4993463;28;20120;-66
2021/03/25 01:03:09;;;;;;;6.25;2.47;;;;;;;8.70;77.42;101095.88;4992889;28;20088;-67
2021/03/25 01:05:36;;;;;;;4.97;2.40;;;;;;;8.66;77.44;101089.63;4993804;28;20042;-66
2021/03/25 01:08:04;;;;;;;4.20;2.08;;;;;;;8.66;77.62;101086.13;4993041;28;20060;-66
2021/03/25 01:10:33;;;;;;;6.13;3.05;;;;;;;8.61;77.59;101095.59;5024713;28;20094;-66
2021/03/25 01:13:02;;;;;;;4.75;2.70;;;;;;;8.54;77.91;101094.53;4993189;28;20076;-67
2021/03/25 01:15:29;;;;;;;6.05;1.88;;;;;;;8.51;78.25;101086.56;4993524;28;20069;-66
2021/03/25 01:17:58;;;;;;;6.85;3.17;;;;;;;8.54;78.31;101091.91;4992519;28;20057;-67
2021/03/25 01:20:29;;;;;;;6.75;3.03;;;;;;;8.46;78.27;101096.06;4993625;28;20552;-66
2021/03/25 01:22:58;;;;;;;7.75;3.70;;;;;;;8.39;78.33;101099.38;4992685;28;20069;-67
2021/03/25 01:25:27;;;;;;;10.35;4.18;;;;;;;8.40;78.45;101093.28;4993082;28;20419;-66
2021/03/25 01:27:54;;;;;;;9.35;5.15;;;;;;;8.41;78.62;101089.75;4993071;28;20070;-67
2021/03/25 01:30:22;;;;;;;10.73;3.30;;;;;;;8.29;78.73;101089.38;4992638;28;20145;-67
2021/03/25 01:32:50;;;;;;;10.00;4.10;;;;;;;8.28;78.86;101101.63;4992256;28;20042;-68
2021/03/25 01:35:17;;;;;;;4.43;2.53;;;;;;;8.31;79.04;101099.13;4992941;28;20121;-67
2021/03/25 01:37:48;;;;;;;6.53;2.75;;;;;;;8.30;78.87;101089.47;4992806;28;20600;-67
2021/03/25 01:40:19;;;;;;;9.07;2.88;;;;;;;8.32;78.74;101100.03;4992939;28;20477;-67
2021/03/25 01:42:46;;;;;;;9.20;3.22;;;;;;;8.27;78.08;101099.84;4991504;28;20130;-66
2021/03/25 01:45:36;;;;;;;6.75;2.97;;;;;;;8.30;77.93;101105.25;4992847;28;20042;-67
2021/03/25 01:48:04;;;;;;;9.15;4.78;;;;;;;8.28;77.69;101116.50;4992249;28;20049;-67
2021/03/25 01:50:31;;;;;;;5.55;4.07;;;;;;;8.26;77.66;101111.22;4992814;28;20097;-66
2021/03/25 01:53:13;;;;;;;9.15;5.10;;;;;;;8.29;77.64;101113.94;4992150;28;20041;-67
2021/03/25 01:55:47;;;;;;;7.07;4.85;;;;;;;8.33;77.56;101120.22;4992557;28;20042;-67
2021/03/25 01:58:33;;;;;;;7.07;4.88;;;;;;;8.32;77.33;101113.19;4992492;28;20041;-67
2021/03/25 02:01:06;;;;;;;10.05;7.47;;;;;;;8.38;77.25;101113.38;4992115;28;20039;-67
2021/03/25 02:03:59;;;;;;;16.85;10.02;;;;;;;8.40;77.17;101116.94;4992950;28;20041;-67
2021/03/25 02:06:35;;;;;;;5.47;2.58;;;;;;;8.43;77.18;101114.38;4992246;28;20070;-67
2021/03/25 02:09:10;;;;;;;5.72;2.67;;;;;;;8.47;77.10;101120.66;4990638;28;20121;-67
2021/03/25 02:11:41;;;;;;;;;;;;;;;8.48;77.03;101117.13;4992992;28;20042;-67
2021/03/25 02:14:15;;;;;;;4.95;2.30;;;;;;;8.48;77.29;101123.28;4991955;28;19921;-67
2021/03/25 02:16:49;;;;;;;3.75;2.00;;;;;;;8.49;77.08;101103.16;4991539;28;20146;-68
2021/03/25 02:19:35;;;;;;;4.18;1.95;;;;;;;8.50;76.98;101102.31;4992505;28;20039;-67
2021/03/25 02:22:20;;;;;;;5.03;1.67;;;;;;;8.47;76.98;101100.47;4991593;28;20530;-67
2021/03/25 02:24:56;;;;;;;4.72;2.00;;;;;;;8.46;77.37;101101.34;4991042;28;20043;-67
2021/03/25 02:27:41;;;;;;;4.22;2.20;;;;;;;8.39;77.44;101094.09;4992002;28;20050;-67
2021/03/25 02:30:11;;;;;;;4.47;2.00;;;;;;;8.34;77.73;101095.69;4991569;28;20050;-67
2021/03/25 02:32:46;;;;;;;5.22;1.80;;;;;;;8.33;78.11;101100.09;4992099;28;20113;-67
2021/03/25 02:35:18;;;;;;;4.07;1.88;;;;;;;8.40;78.00;101101.16;4992018;28;20064;-67
2021/03/25 02:37:49;;;;;;;7.47;2.40;;;;;;;8.36;77.91;101092.25;4991173;28;20047;-67
2021/03/25 02:40:22;;;;;;;10.48;4.10;;;;;;;8.36;78.09;101109.78;4992043;28;20038;-67
2021/03/25 02:42:55;;;;;;;19.92;10.27;;;;;;;8.25;78.33;101116.44;4991278;28;20085;-66
2021/03/25 02:45:26;;;;;;;9.55;4.75;;;;;;;8.22;78.51;101111.06;4991858;28;20038;-66
2021/03/25 02:47:59;;;;;;;6.13;3.25;;;;;;;8.12;78.74;101107.28;4991449;28;20522;-66
2021/03/25 02:50:31;;;;;;;7.40;3.10;;;;;;;8.04;79.10;101106.13;4989346;28;20049;-67
2021/03/25 02:53:02;;;;;;;12.50;5.47;;;;;;;7.97;79.37;101099.81;4991519;28;20049;-67
2021/03/25 02:55:30;;;;;;;12.77;8.80;;;;;;;8.04;79.48;101103.50;4991493;28;20042;-66
2021/03/25 02:58:02;;;;;;;8.52;5.20;;;;;;;8.09;79.48;101112.44;4991348;28;20039;-66
2021/03/25 03:00:35;;;;;;;11.07;5.88;;;;;;;8.04;79.46;101121.03;4991317;28;20077;-66
2021/03/25 03:03:07;;;;;;;8.30;4.07;;;;;;;7.86;79.93;101121.34;4990797;28;20092;-66
2021/03/25 03:05:38;;;;;;;7.65;3.60;;;;;;;7.88;80.23;101120.53;4991352;28;20494;-66
2021/03/25 03:08:11;;;;;;;8.20;3.63;;;;;;;7.94;80.25;101120.72;5006002;28;20039;-66
2021/03/25 03:10:54;;;;;;;7.28;3.78;;;;;;;7.99;80.26;101124.41;4991261;28;20042;-67
2021/03/25 03:13:23;;;;;;;11.25;7.75;;;;;;;7.97;80.16;101131.34;4991033;28;20038;-66
2021/03/25 03:15:54;;;;;;;10.07;6.95;;;;;;;7.98;80.01;101129.63;4990635;28;20038;-66
2021/03/25 03:18:28;;;;;;;11.25;7.13;;;;;;;8.04;79.68;101126.28;4991128;28;20411;-69
2021/03/25 03:20:59;;;;;;;9.82;7.18;;;;;;;8.05;79.49;101128.06;4990836;28;20046;-66
2021/03/25 03:23:29;;;;;;;7.85;4.93;;;;;;;8.04;79.32;101136.78;4970591;28;20039;-66
2021/03/25 03:26:01;;;;;;;6.57;3.08;;;;;;;8.07;79.30;101131.66;4972752;28;20059;-67
2021/03/25 03:28:31;;;;;;;7.78;3.17;;;;;;;8.05;79.34;101134.22;4971547;28;20035;-66
2021/03/25 03:31:04;;;;;;;5.85;2.72;;;;;;;8.05;79.25;101122.81;4971177;28;20038;-67
2021/03/25 03:33:37;;;;;;;8.10;3.00;;;;;;;7.97;79.36;101128.72;4971513;28;20515;-66
2021/03/25 03:36:07;;;;;;;6.80;2.88;;;;;;;7.85;79.40;101136.22;4987310;28;20510;-66
2021/03/25 03:38:38;;;;;;;7.85;3.10;;;;;;;7.81;79.41;101136.94;4982017;28;20043;-66
2021/03/25 03:41:09;;;;;;;13.68;5.68;;;;;;;7.81;79.33;101139.56;4971229;28;20043;-66
2021/03/25 03:43:38;;;;;;;9.70;5.85;;;;;;;7.81;79.33;101142.19;4982880;28;20448;-66
2021/03/25 03:46:09;;;;;;;8.85;2.47;;;;;;;7.80;79.15;101148.31;4979800;28;20049;-66
2021/03/25 03:48:41;;;;;;;6.35;2.90;;;;;;;7.81;78.68;101146.59;4971282;28;20117;-66
2021/03/25 03:51:13;;;;;;;9.48;2.70;;;;;;;7.87;78.64;101141.53;4971356;28;20574;-66
2021/03/25 03:53:40;;;;;;;10.27;3.75;;;;;;;7.90;78.45;101147.75;4970821;28;20042;-66
2021/03/25 03:56:14;;;;;;;8.23;4.22;;;;;;;7.94;78.23;101161.91;4984479;28;20125;-66
2021/03/25 03:58:46;;;;;;;19.40;8.52;;;;;;;7.97;78.30;101155.00;4973307;28;20110;-66
2021/03/25 04:01:22;;;;;;;5.88;2.65;;;;;;;7.98;78.05;101162.06;4971290;28;20503;-66
2021/03/25 04:03:58;;;;;;;8.75;4.40;;;;;;;8.02;77.53;101161.28;4970783;28;20031;-66
2021/03/25 04:06:32;;;;;;;13.45;4.55;;;;;;;8.04;77.54;101163.09;4978070;28;20081;-66
2021/03/25 04:09:05;;;;;;;5.63;2.80;;;;;;;8.04;77.45;101168.34;4970813;28;20439;-66
2021/03/25 04:11:36;;;;;;;5.00;2.70;;;;;;;8.09;77.14;101172.00;4971381;28;20035;-66
2021/03/25 04:14:07;;;;;;;8.02;2.67;;;;;;;8.07;76.79;101173.72;4972015;28;20977;-66
2021/03/25 04:16:37;;;;;;;9.43;4.85;;;;;;;8.07;76.53;101173.72;4981398;28;20503;-66
2021/03/25 04:19:12;;;;;;;11.25;5.30;;;;;;;8.08;76.13;101170.22;4986070;28;20115;-66
2021/03/25 04:21:44;;;;;;;10.68;6.53;;;;;;;8.10;75.60;101176.41;4971393;28;20027;-65
2021/03/25 04:24:18;;;;;;;8.18;3.95;;;;;;;8.14;75.51;101178.31;4970744;28;20038;-66
2021/03/25 04:26:49;;;;;;;6.72;4.00;;;;;;;8.19;75.55;101174.09;4970681;28;20041;-66
2021/03/25 04:29:21;;;;;;;7.22;3.53;;;;;;;8.22;75.66;101175.06;4971808;28;20039;-65
2021/03/25 04:31:48;;;;;;;13.90;4.20;;;;;;;8.19;75.61;101177.63;4979087;28;20491;-66
2021/03/25 04:34:17;;;;;;;8.73;4.55;;;;;;;8.23;75.70;101179.50;4978046;28;20149;-66
2021/03/25 04:36:46;;;;;;;7.45;3.20;;;;;;;8.27;75.79;101186.63;4970684;28;20042;-66
2021/03/25 04:39:16;;;;;;;9.88;2.97;;;;;;;8.32;75.80;101194.72;4970947;28;20039;-66
2021/03/25 04:41:46;;;;;;;9.13;3.10;;;;;;;8.36;76.03;101186.06;4971643;28;20117;-67
2021/03/25 04:44:30;;;;;;;9.05;3.90;;;;;;;8.40;76.16;101188.81;4970927;28;20122;-66
2021/03/25 04:47:02;;;;;;;12.57;3.13;;;;;;;8.42;75.83;101190.63;4988870;28;20531;-66
2021/03/25 04:49:35;;;;;;;4.45;2.30;;;;;;;8.46;75.27;101196.03;4990263;28;20837;-66
2021/03/25 04:52:08;;;;;;;5.07;2.67;;;;;;;8.50;75.21;101197.00;4983362;28;20458;-66
2021/03/25 04:54:38;;;;;;;4.47;2.22;;;;;;;8.53;74.77;101210.28;4970917;28;20193;-66
2021/03/25 04:57:22;;;;;;;8.90;4.82;;;;;;;8.57;74.49;101209.50;4971264;28;20042;-65
2021/03/25 04:59:50;;;;;;;9.73;6.10;;;;;;;8.58;74.33;101212.19;4970337;28;20043;-66
2021/03/25 05:02:17;;;;;;;13.07;3.67;;;;;;;8.58;73.87;101217.47;4969326;28;20050;-66
2021/03/25 05:04:47;;;;;;;7.35;2.72;;;;;;;8.64;73.55;101215.03;4970628;28;20411;-66
2021/03/25 05:07:19;;;;;;;6.50;2.78;;;;;;;8.75;73.35;101221.50;4974337;28;20510;-65
2021/03/25 05:09:46;;;;;;;7.28;2.75;;;;;;;8.86;72.73;101224.44;4981463;28;20039;-66
2021/03/25 05:12:16;;;;;;;8.73;3.25;;;;;;;8.99;72.30;101226.56;4974078;28;20049;-66
2021/03/25 05:14:44;;;;;;;6.05;2.53;;;;;;;9.09;71.86;101222.47;4974155;28;20039;-65
2021/03/25 05:17:47;;;;;;;6.63;2.53;;;;;;;9.15;71.42;101223.56;4974587;28;20035;-65
2021/03/25 05:20:19;;;;;;;7.43;2.45;;;;;;;9.19;71.26;101219.25;4942940;28;20648;-65
2021/03/25 05:22:55;;;;;;;3.95;2.40;;;;;;;9.17;70.87;101229.78;4973620;28;20038;-65
2021/03/25 05:25:29;;;;;;;7.53;2.35;;;;;;;9.22;71.01;101221.97;4991473;28;20133;-65
2021/03/25 05:28:00;;;;;;;3.33;2.03;;;;;;;9.23;71.16;101218.50;4993079;28;20222;-65
2021/03/25 05:30:31;;;;;;;6.45;2.55;;;;;;;9.19;71.38;101230.69;4993135;28;20070;-65
2021/03/25 05:33:01;;;;;;;5.82;2.50;;;;;;;9.07;70.31;101221.53;4991274;28;20419;-65
2021/03/25 05:35:34;;;;;;;11.20;3.55;;;;;;;8.90;71.65;101235.97;4954479;29;20032;-66
2021/03/25 05:38:01;;;;;;;5.60;2.97;;;;;;;8.90;72.17;101241.22;4981006;28;20038;-65
2021/03/25 05:40:32;;;;;;;15.73;9.35;;;;;;;9.07;72.82;101235.59;4977649;28;20122;-65
2021/03/25 05:43:23;;;;;;;8.52;4.15;;;;;;;9.28;72.76;101248.50;4978752;28;20038;-65
2021/03/25 05:45:56;;;;;;;9.02;3.88;;;;;;;9.60;72.36;101255.56;4973146;28;20034;-66
2021/03/25 05:48:53;;;;;;;7.35;3.75;;;;;;;9.85;72.13;101248.28;4984326;28;20503;-65
2021/03/25 05:51:31;;;;;;;5.55;2.25;;;;;;;9.90;71.79;101255.50;4990141;28;20049;-65
2021/03/25 05:54:15;;;;;;;8.18;2.38;;;;;;;9.90;70.38;101259.88;4982935;28;20182;-65
2021/03/25 05:57:01;;;;;;;9.05;2.35;;;;;;;9.92;69.44;101261.69;4978707;28;20035;-65
2021/03/25 05:59:35;;;;;;;6.75;2.70;;;;;;;9.92;67.92;101269.59;4973055;28;20560;-65
2021/03/25 06:02:04;;;;;;;;;;;;;;;9.91;66.11;101264.31;4976732;28;20042;-65
2021/03/25 06:04:32;;;;;;;5.18;2.60;;;;;;;9.90;67.25;101273.06;4973256;28;19922;-65
2021/03/25 06:07:45;;;;;;;4.70;2.55;;;;;;;10.03;66.96;101272.53;4972462;28;20109;-65
2021/03/25 06:10:21;;;;;;;7.50;2.70;;;;;;;9.99;65.45;101273.28;4972977;28;20041;-66
2021/03/25 06:13:06;;;;;;;5.40;2.00;;;;;;;9.98;65.25;101274.13;4985669;28;20043;-66
2021/03/25 06:15:57;;;;;;;6.45;3.10;;;;;;;9.90;64.85;101270.44;4990368;28;20114;-65
2021/03/25 06:18:52;;;;;;;5.55;2.45;;;;;;;9.87;66.35;101270.31;4990092;28;20088;-65
2021/03/25 06:21:32;;;;;;;10.65;4.70;;;;;;;9.89;67.53;101280.09;4983190;28;20038;-65
2021/03/25 06:24:35;;;;;;;8.25;2.85;;;;;;;9.90;67.37;101276.59;4976331;28;20517;-66
2021/03/25 06:27:13;;;;;;;8.73;3.38;;;;;;;9.90;67.17;101276.59;4964255;28;20039;-66
2021/03/25 06:29:46;;;;;;;5.63;1.95;;;;;;;10.03;66.95;101288.34;4972904;28;20043;-66
2021/03/25 06:32:21;;;;;;;6.00;2.28;;;;;;;10.17;66.64;101292.28;4972488;28;20404;-66
2021/03/25 06:34:55;;;;;;;5.30;2.35;;;;;;;10.26;66.27;101294.25;4972058;28;20043;-66
2021/03/25 06:37:27;;;;;;;15.07;6.57;;;;;;;10.31;65.96;101296.13;4971922;28;20068;-66
2021/03/25 06:39:58;;;;;;;7.75;2.50;;;;;;;10.43;66.20;101277.09;4971859;28;20455;-66
2021/03/25 06:42:32;;;;;;;7.80;3.30;;;;;;;10.56;65.74;101287.09;4972133;28;20035;-66
2021/03/25 06:45:05;;;;;;;6.07;2.40;;;;;;;10.62;65.25;101281.97;4971960;28;20035;-66
2021/03/25 06:47:50;;;;;;;5.00;3.55;;;;;;;10.64;64.61;101264.38;4972560;28;20034;-66
2021/03/25 06:50:21;;;;;;;6.22;4.25;;;;;;;10.69;64.94;101268.03;4971444;28;20047;-66
2021/03/25 06:52:49;;;;;;;5.45;3.28;;;;;;;10.83;64.77;101281.53;4971337;28;20518;-66
2021/03/25 06:55:20;;;;;;;6.28;4.03;;;;;;;11.06;64.16;101288.25;4972179;28;20448;-66
2021/03/25 06:57:54;;;;;;;6.20;3.67;;;;;;;11.06;63.79;101306.75;4960089;28;20036;-66
2021/03/25 07:00:24;;;;;;;7.97;3.53;;;;;;;10.94;63.41;101317.03;4961376;28;20138;-66
2021/03/25 07:02:53;;;;;;;3.65;2.00;;;;;;;10.76;63.76;101317.47;4952298;28;20046;-66
2021/03/25 07:05:24;;;;;;;5.75;3.58;;;;;;;10.64;64.02;101327.75;4962615;28;20093;-66
2021/03/25 07:08:00;;;;;;;3.10;2.15;;;;;;;10.54;64.48;101332.78;4954380;28;20043;-66
2021/03/25 07:10:29;;;;;;;14.50;5.03;;;;;;;10.48;64.61;101328.25;4964413;28;20097;-66
2021/03/25 07:13:04;;;;;;;8.88;4.15;;;;;;;10.45;65.02;101338.72;4964534;28;20559;-66
2021/03/25 07:15:33;;;;;;;12.80;7.15;;;;;;;10.47;65.42;101334.38;4957632;28;20058;-66
2021/03/25 07:18:05;;;;;;;15.15;7.05;;;;;;;10.56;65.69;101333.72;4957655;28;20040;-66
2021/03/25 07:20:34;;;;;;;32.10;17.08;;;;;;;10.67;65.95;101335.75;4953249;28;20562;-66
2021/03/25 07:23:08;;;;;;;25.15;14.93;;;;;;;10.82;65.83;101326.41;4952491;28;20129;-66
2021/03/25 07:25:39;;;;;;;24.02;13.38;;;;;;;11.02;66.12;101320.75;4966427;28;20030;-66
2021/03/25 07:28:14;;;;;;;11.52;7.20;;;;;;;11.25;66.55;101329.16;4983711;28;20046;-66
2021/03/25 07:30:47;;;;;;;14.02;10.25;;;;;;;11.19;66.90;101335.22;4986092;28;20034;-66
2021/03/25 07:33:16;;;;;;;12.00;7.25;;;;;;;11.13;67.33;101327.16;4990318;28;20049;-65
2021/03/25 07:35:46;;;;;;;11.15;6.32;;;;;;;11.06;67.41;101340.19;4989683;28;20034;-65
2021/03/25 07:38:23;;;;;;;8.55;4.65;;;;;;;10.75;67.63;101347.41;4988293;28;20446;-66
2021/03/25 07:41:18;;;;;;;23.17;15.70;;;;;;;10.19;68.89;101350.34;4989885;28;20431;-67
2021/03/25 07:43:55;;;;;;;5.75;2.63;;;;;;;9.33;71.19;101351.38;4981037;28;20035;-66
2021/03/25 07:46:29;;;;;;;3.90;1.52;;;;;;;9.00;72.70;101351.22;4990172;28;20081;-66
2021/03/25 07:48:59;;;;;;;2.10;1.40;;;;;;;9.08;73.38;101347.09;4989619;28;20043;-66
2021/03/25 07:51:26;;;;;;;15.45;11.88;;;;;;;9.43;72.78;101356.97;4990427;28;20743;-66
2021/03/25 07:54:10;;;;;;;25.30;20.38;;;;;;;9.90;71.40;101349.53;4990009;28;20565;-66
2021/03/25 07:56:58;;;;;;;5.43;2.58;;;;;;;10.09;69.17;101346.53;4991047;28;20513;-66
2021/03/25 07:59:47;;;;;;;10.13;6.28;;;;;;;10.00;66.38;101360.38;4990703;28;20038;-66
2021/03/25 08:02:27;;;;;;;27.92;13.10;;;;;;;10.08;66.25;101355.31;4989978;28;20558;-67
2021/03/25 08:04:55;;;;;;;12.10;7.38;;;;;;;10.29;66.01;101355.03;4989776;28;20137;-67
2021/03/25 08:07:23;;;;;;;15.07;9.63;;;;;;;10.51;65.36;101357.34;4990248;28;20046;-66
2021/03/25 08:09:55;;;;;;;15.23;7.85;;;;;;;10.73;64.44;101351.75;4988907;28;20042;-66
2021/03/25 08:12:35;;;;;;;12.15;7.05;;;;;;;11.06;64.00;101349.00;4989536;28;20034;-66
2021/03/25 08:15:22;;;;;;;6.05;3.92;;;;;;;11.20;63.60;101338.75;4989291;28;20042;-66
2021/03/25 08:18:04;;;;;;;20.25;14.80;;;;;;;11.33;63.32;101350.47;4981151;28;20515;-66
2021/03/25 08:20:38;;;;;;;15.20;8.85;;;;;;;11.34;62.40;101355.81;4989463;28;20034;-66
2021/03/25 08:23:27;;;;;;;8.10;5.82;;;;;;;11.42;62.54;101355.97;4988392;28;20046;-66
2021/03/25 08:26:01;;;;;;;8.35;3.50;;;;;;;11.43;61.22;101356.00;4994970;28;20050;-66
2021/03/25 08:28:57;;;;;;;10.85;5.43;;;;;;;11.32;60.14;101346.06;4975777;28;20122;-67
2021/03/25 08:31:33;;;;;;;15.27;6.20;;;;;;;11.37;59.58;101361.16;4989663;28;20619;-67
2021/03/25 08:34:13;;;;;;;6.60;3.38;;;;;;;11.47;59.45;101360.50;4990794;28;20038;-66
2021/03/25 08:36:56;;;;;;;11.65;5.35;;;;;;;11.44;59.06;101360.44;4996140;28;20406;-66
2021/03/25 08:39:32;;;;;;;10.93;5.03;;;;;;;11.40;59.40;101355.94;4987322;28;20043;-66
2021/03/25 08:42:05;;;;;;;5.53;2.40;;;;;;;11.56;58.27;101357.13;5003346;28;20087;-67
2021/03/25 08:44:41;;;;;;;16.42;10.48;;;;;;;11.71;58.04;101360.13;4992996;28;20042;-67
2021/03/25 08:47:15;;;;;;;5.30;2.55;;;;;;;11.75;57.43;101361.13;4995680;28;20129;-66
2021/03/25 08:50:02;;;;;;;9.02;5.93;;;;;;;11.65;57.43;101367.03;4992805;28;20142;-67
2021/03/25 08:52:31;;;;;;;5.35;2.38;;;;;;;11.59;58.27;101373.09;4998432;28;20043;-67
2021/03/25 08:55:09;;;;;;;3.53;1.75;;;;;;;11.37;57.50;101371.72;4991883;28;20129;-66
2021/03/25 08:57:39;;;;;;;10.68;6.80;;;;;;;11.13;57.84;101394.97;4986135;28;20039;-65
2021/03/25 09:00:15;;;;;;;12.73;7.13;;;;;;;11.06;58.87;101404.50;4988354;28;20525;-66
2021/03/25 09:02:48;;;;;;;16.65;7.78;;;;;;;11.01;59.22;101398.22;4992815;28;20030;-67
2021/03/25 09:05:24;;;;;;;15.35;7.55;;;;;;;10.89;58.63;101411.13;4995508;28;20053;-66
2021/03/25 09:07:51;;;;;;;18.98;10.02;;;;;;;10.74;59.42;101413.38;5000317;28;20061;-66
2021/03/25 09:10:33;;;;;;;16.15;10.82;;;;;;;10.57;59.71;101414.66;4992746;28;20425;-66
2021/03/25 09:13:01;;;;;;;13.45;6.80;;;;;;;10.38;60.05;101427.38;4992242;28;20129;-66
2021/03/25 09:15:29;;;;;;;23.63;12.65;;;;;;;10.23;59.99;101424.34;4993105;28;20038;-66
2021/03/25 09:17:59;;;;;;;6.40;4.13;;;;;;;10.07;60.50;101422.09;4992456;28;20423;-66
2021/03/25 09:20:30;;;;;;;17.70;11.95;;;;;;;9.97;60.77;101431.50;4993436;28;20039;-66
2021/03/25 09:22:58;;;;;;;5.75;3.50;;;;;;;9.90;61.02;101432.19;4992971;28;20049;-65
2021/03/25 09:25:43;;;;;;;6.90;3.20;;;;;;;9.91;60.58;101441.00;4992697;28;20147;-66
2021/03/25 09:28:18;;;;;;;7.63;2.17;;;;;;;9.75;59.69;101439.63;4993175;28;20038;-67
2021/03/25 09:31:03;;;;;;;7.07;3.10;;;;;;;9.69;60.02;101444.72;4990662;28;20038;-66
2021/03/25 09:33:51;;;;;;;11.18;6.03;;;;;;;9.65;59.56;101456.00;4986544;28;20042;-66
2021/03/25 09:36:48;;;;;;;9.82;4.18;;;;;;;9.76;59.55;101457.25;4992949;28;20042;-66
2021/03/25 09:39:23;;;;;;;9.00;3.95;;;;;;;9.74;60.11;101468.59;4992453;28;20049;-65
2021/03/25 09:41:51;;;;;;;9.70;4.40;;;;;;;9.74;61.27;101465.94;4992705;28;20660;-66
2021/03/25 09:44:27;;;;;;;9.02;4.28;;;;;;;9.86;61.60;101463.66;4991937;28;20034;-66
2021/03/25 09:49:56;;;;;;;8.65;4.28;;;;;;;10.15;62.46;101462.78;5097333;27;20179;-67
2021/03/25 09:52:31;;;;;;;8.85;3.67;;;;;;;10.39;62.42;101463.50;5087156;28;20109;-67
2021/03/25 09:55:15;;;;;;;8.43;5.53;;;;;;;10.60;62.47;101467.56;5068691;28;20086;-67
2021/03/25 09:57:44;;;;;;;31.58;16.73;;;;;;;10.37;61.78;101472.25;5050065;28;20086;-67
2021/03/25 10:00:14;;;;;;;9.82;5.85;;;;;;;10.35;62.30;101481.84;5106673;28;20040;-67
2021/03/25 10:02:55;;;;;;;7.90;5.32;;;;;;;10.65;61.97;101482.69;5097384;28;20748;-67
2021/03/25 10:05:39;;;;;;;8.77;5.03;;;;;;;10.90;62.08;101478.03;5097478;28;20048;-67
2021/03/25 10:08:39;;;;;;;9.02;4.50;;;;;;;11.26;61.58;101484.25;5087937;28;20037;-67
2021/03/25 10:11:53;;;;;;;6.70;2.83;;;;;;;11.53;61.35;101478.72;5093682;28;20135;-67
2021/03/25 10:14:51;;;;;;;7.57;4.57;;;;;;;11.64;60.73;101495.72;5049552;28;20034;-67
2021/03/25 10:17:46;;;;;;;12.75;7.70;;;;;;;11.59;60.29;101484.16;5096473;28;20511;-67
2021/03/25 10:20:30;;;;;;;4.22;2.88;;;;;;;11.34;59.84;101481.78;5106184;28;20412;-66
2021/03/25 10:22:58;;;;;;;4.78;1.83;;;;;;;11.02;60.24;101479.25;5094528;27;20040;-67
2021/03/25 10:25:30;;;;;;;2.65;1.92;;;;;;;10.71;59.90;101488.13;5105610;28;20024;-67
2021/03/25 10:28:01;;;;;;;10.13;5.60;;;;;;;10.46;60.24;101498.88;5105866;27;20032;-67
2021/03/25 10:30:33;;;;;;;9.63;4.57;;;;;;;10.23;60.92;101502.63;5105946;27;20047;-66
2021/03/25 10:33:05;;;;;;;8.43;4.05;;;;;;;10.26;61.80;101503.59;5101218;27;20035;-67
2021/03/25 10:35:40;;;;;;;5.32;2.25;;;;;;;10.39;62.07;101507.47;5115775;27;20058;-67
2021/03/25 10:38:13;;;;;;;3.13;1.55;;;;;;;10.55;61.76;101507.06;5112627;27;20170;-67
2021/03/25 10:40:44;;;;;;;4.80;2.20;;;;;;;10.59;61.83;101510.66;5100821;28;20040;-67
2021/03/25 10:43:16;;;;;;;5.13;2.45;;;;;;;10.74;61.39;101509.34;5098608;27;20813;-67
2021/03/25 10:45:50;;;;;;;5.03;2.90;;;;;;;10.99;60.66;101508.22;5105140;27;20595;-67
2021/03/25 10:48:31;;;;;;;5.78;2.85;;;;;;;11.32;60.04;101500.25;5103090;28;20040;-67
2021/03/25 10:51:03;;;;;;;5.28;2.40;;;;;;;11.45;59.60;101491.75;5092653;28;20051;-67
2021/03/25 10:53:34;;;;;;;4.93;2.05;;;;;;;11.60;58.98;101501.81;5096911;28;20102;-67
2021/03/25 10:56:16;;;;;;;3.40;2.20;;;;;;;11.81;58.82;101499.69;5101880;28;20039;-67
2021/03/25 10:58:47;;;;;;;9.90;3.85;;;;;;;12.02;58.59;101495.69;5089714;28;20076;-68
2021/03/25 11:01:18;;;;;;;9.07;5.68;;;;;;;12.19;58.20;101499.63;5075934;28;20036;-67
2021/03/25 11:03:46;;;;;;;5.20;3.10;;;;;;;12.06;56.35;101492.28;5087733;28;20066;-68
2021/03/25 11:06:23;;;;;;;6.28;3.45;;;;;;;12.06;56.54;101492.28;5088523;28;20136;-67
2021/03/25 11:08:52;;;;;;;8.32;5.03;;;;;;;11.97;55.50;101491.22;5084276;28;20040;-67
2021/03/25 11:11:23;;;;;;;5.78;3.15;;;;;;;12.04;56.48;101486.94;5074188;28;20048;-67
2021/03/25 11:14:01;;;;;;;7.25;3.05;;;;;;;12.08;56.17;101486.13;5075345;28;20519;-67
2021/03/25 11:16:29;;;;;;;8.80;5.90;;;;;;;12.12;56.20;101489.75;5085365;28;20085;-67
2021/03/25 11:19:01;;;;;;;6.63;3.25;;;;;;;12.21;55.40;101497.88;5090947;28;20035;-67
2021/03/25 11:21:33;;;;;;;4.80;2.90;;;;;;;12.10;54.94;101500.31;5087966;28;20040;-67
2021/03/25 11:24:06;;;;;;;5.00;2.10;;;;;;;12.02;55.35;101504.53;5089305;28;20074;-67
2021/03/25 11:26:34;;;;;;;6.23;3.70;;;;;;;11.80;55.58;101502.31;5090826;28;20119;-68
2021/03/25 11:29:02;;;;;;;5.57;2.50;;;;;;;11.73;56.00;101493.28;5089300;28;20287;-68
2021/03/25 11:31:31;;;;;;;6.07;2.22;;;;;;;11.71;55.63;101509.97;5085726;28;20063;-67
2021/03/25 11:33:58;;;;;;;5.88;2.60;;;;;;;11.67;55.69;101506.38;5082438;28;20044;-68
2021/03/25 11:36:38;;;;;;;7.35;2.75;;;;;;;11.59;56.34;101507.94;5092109;28;20588;-67
2021/03/25 11:39:28;;;;;;;15.38;6.47;;;;;;;11.57;57.10;101507.00;5088542;28;20528;-67
2021/03/25 11:41:57;;;;;;;9.45;3.78;;;;;;;11.52;57.17;101524.53;5081844;28;20052;-67
2021/03/25 11:44:48;;;;;;;15.00;7.50;;;;;;;11.47;56.76;101510.31;5086502;28;20085;-67
2021/03/25 11:47:39;;;;;;;20.48;9.15;;;;;;;11.29;57.06;101502.81;5077327;28;20068;-67
2021/03/25 11:50:30;;;;;;;9.88;4.97;;;;;;;11.00;57.79;101506.47;5072268;28;20573;-67
2021/03/25 11:52:59;;;;;;;10.30;5.93;;;;;;;10.96;58.63;101521.34;5079794;28;20043;-68
2021/03/25 11:55:32;;;;;;;15.77;6.57;;;;;;;10.95;58.34;101524.88;5087854;28;20036;-67
2021/03/25 11:58:07;;;;;;;6.85;3.78;;;;;;;10.69;57.80;101520.63;5089219;28;20051;-67
2021/03/25 12:00:35;;;;;;;7.50;3.80;;;;;;;9.80;59.68;101521.50;5088886;28;20032;-67
2021/03/25 12:03:16;;;;;;;6.47;3.38;;;;;;;9.00;62.79;101520.66;5087900;28;20469;-67